<?xml version="1.0" encoding="UTF-8" standalone="no" ?>
<gpx xmlns="http://www.topografix.com/GPX/1/1" xmlns:xsi="http://www.w3.org/2001/XMLSchema-instance" xsi:schemaLocation="http://www.topografix.com/GPX/1/1 http://www.topografix.com/GPX/1/1/gpx.xsd" version="1.1" creator="VisuGPX - https://www.visugpx.com">
  <metadata>
    <name>boucles de l yerre </name>
    <desc><![CDATA[AVF Antony boucles de l yerre ]]></desc>
  </metadata>
  <trk>
    <name><![CDATA[boucles de l yerre animée ]]></name>
    <cmt><![CDATA[11 déc. 2015 13:54:08]]></cmt>
    <trkseg>
      <trkpt lat="48.6788" lon="2.52824">
        <ele>79</ele>
        <time>2015-12-11T12:54:09Z</time>
      </trkpt>
      <trkpt lat="48.67878" lon="2.52813">
        <ele>80</ele>
        <time>2015-12-11T12:56:06Z</time>
      </trkpt>
      <trkpt lat="48.6788" lon="2.52809">
        <ele>80</ele>
        <time>2015-12-11T12:56:14Z</time>
      </trkpt>
      <trkpt lat="48.67884" lon="2.52815">
        <ele>80</ele>
        <time>2015-12-11T12:56:18Z</time>
      </trkpt>
      <trkpt lat="48.67913" lon="2.52843">
        <ele>80</ele>
        <time>2015-12-11T12:56:49Z</time>
      </trkpt>
      <trkpt lat="48.67946" lon="2.52881">
        <ele>80</ele>
        <time>2015-12-11T12:57:23Z</time>
      </trkpt>
      <trkpt lat="48.6795" lon="2.52885">
        <ele>80</ele>
        <time>2015-12-11T12:57:27Z</time>
      </trkpt>
      <trkpt lat="48.67983" lon="2.52923">
        <ele>80</ele>
        <time>2015-12-11T12:58:00Z</time>
      </trkpt>
      <trkpt lat="48.67987" lon="2.52928">
        <ele>80</ele>
        <time>2015-12-11T12:58:04Z</time>
      </trkpt>
      <trkpt lat="48.67992" lon="2.52929">
        <ele>80</ele>
        <time>2015-12-11T12:58:09Z</time>
      </trkpt>
      <trkpt lat="48.67995" lon="2.52924">
        <ele>80</ele>
        <time>2015-12-11T12:58:13Z</time>
      </trkpt>
      <trkpt lat="48.68016" lon="2.52873">
        <ele>80</ele>
        <time>2015-12-11T12:58:45Z</time>
      </trkpt>
      <trkpt lat="48.68012" lon="2.52867">
        <ele>79</ele>
        <time>2015-12-11T12:58:49Z</time>
      </trkpt>
      <trkpt lat="48.67995" lon="2.52853">
        <ele>79</ele>
        <time>2015-12-11T12:59:05Z</time>
      </trkpt>
      <trkpt lat="48.67993" lon="2.52846">
        <ele>79</ele>
        <time>2015-12-11T12:59:10Z</time>
      </trkpt>
      <trkpt lat="48.67995" lon="2.52838">
        <ele>79</ele>
        <time>2015-12-11T12:59:15Z</time>
      </trkpt>
      <trkpt lat="48.6802" lon="2.52804">
        <ele>77</ele>
        <time>2015-12-11T12:59:46Z</time>
      </trkpt>
      <trkpt lat="48.68046" lon="2.52765">
        <ele>76</ele>
        <time>2015-12-11T13:00:17Z</time>
      </trkpt>
      <trkpt lat="48.68072" lon="2.52719">
        <ele>75</ele>
        <time>2015-12-11T13:00:49Z</time>
      </trkpt>
      <trkpt lat="48.68088" lon="2.52685">
        <ele>73</ele>
        <time>2015-12-11T13:01:16Z</time>
      </trkpt>
      <trkpt lat="48.68087" lon="2.52689">
        <ele>73</ele>
        <time>2015-12-11T13:01:45Z</time>
      </trkpt>
      <trkpt lat="48.68086" lon="2.52694">
        <ele>73</ele>
        <time>2015-12-11T13:04:30Z</time>
      </trkpt>
      <trkpt lat="48.68092" lon="2.52694">
        <ele>73</ele>
        <time>2015-12-11T13:04:55Z</time>
      </trkpt>
      <trkpt lat="48.68096" lon="2.52691">
        <ele>73</ele>
        <time>2015-12-11T13:04:59Z</time>
      </trkpt>
      <trkpt lat="48.68109" lon="2.52666">
        <ele>74</ele>
        <time>2015-12-11T13:05:16Z</time>
      </trkpt>
      <trkpt lat="48.68131" lon="2.52645">
        <ele>74</ele>
        <time>2015-12-11T13:05:36Z</time>
      </trkpt>
      <trkpt lat="48.68134" lon="2.5264">
        <ele>74</ele>
        <time>2015-12-11T13:05:42Z</time>
      </trkpt>
      <trkpt lat="48.68134" lon="2.52632">
        <ele>74</ele>
        <time>2015-12-11T13:05:46Z</time>
      </trkpt>
      <trkpt lat="48.68141" lon="2.5262">
        <ele>75</ele>
        <time>2015-12-11T13:05:54Z</time>
      </trkpt>
      <trkpt lat="48.68174" lon="2.52592">
        <ele>76</ele>
        <time>2015-12-11T13:06:24Z</time>
      </trkpt>
      <trkpt lat="48.68194" lon="2.52578">
        <ele>77</ele>
        <time>2015-12-11T13:06:41Z</time>
      </trkpt>
      <trkpt lat="48.68198" lon="2.52575">
        <ele>77</ele>
        <time>2015-12-11T13:06:46Z</time>
      </trkpt>
      <trkpt lat="48.68203" lon="2.5257">
        <ele>77</ele>
        <time>2015-12-11T13:06:51Z</time>
      </trkpt>
      <trkpt lat="48.68207" lon="2.52558">
        <ele>78</ele>
        <time>2015-12-11T13:07:08Z</time>
      </trkpt>
      <trkpt lat="48.68206" lon="2.5255">
        <ele>78</ele>
        <time>2015-12-11T13:07:14Z</time>
      </trkpt>
      <trkpt lat="48.68204" lon="2.52526">
        <ele>78</ele>
        <time>2015-12-11T13:07:29Z</time>
      </trkpt>
      <trkpt lat="48.68202" lon="2.5252">
        <ele>79</ele>
        <time>2015-12-11T13:07:33Z</time>
      </trkpt>
      <trkpt lat="48.68198" lon="2.52514">
        <ele>78</ele>
        <time>2015-12-11T13:07:38Z</time>
      </trkpt>
      <trkpt lat="48.68193" lon="2.52501">
        <ele>79</ele>
        <time>2015-12-11T13:07:50Z</time>
      </trkpt>
      <trkpt lat="48.68192" lon="2.52471">
        <ele>79</ele>
        <time>2015-12-11T13:08:08Z</time>
      </trkpt>
      <trkpt lat="48.68195" lon="2.52464">
        <ele>79</ele>
        <time>2015-12-11T13:08:12Z</time>
      </trkpt>
      <trkpt lat="48.68223" lon="2.52416">
        <ele>79</ele>
        <time>2015-12-11T13:08:43Z</time>
      </trkpt>
      <trkpt lat="48.68239" lon="2.52411">
        <ele>79</ele>
        <time>2015-12-11T13:08:56Z</time>
      </trkpt>
      <trkpt lat="48.68258" lon="2.52422">
        <ele>78</ele>
        <time>2015-12-11T13:09:12Z</time>
      </trkpt>
      <trkpt lat="48.68264" lon="2.52421">
        <ele>78</ele>
        <time>2015-12-11T13:09:16Z</time>
      </trkpt>
      <trkpt lat="48.68268" lon="2.52417">
        <ele>78</ele>
        <time>2015-12-11T13:09:20Z</time>
      </trkpt>
      <trkpt lat="48.6827" lon="2.5241">
        <ele>78</ele>
        <time>2015-12-11T13:09:24Z</time>
      </trkpt>
      <trkpt lat="48.68274" lon="2.52376">
        <ele>77</ele>
        <time>2015-12-11T13:09:52Z</time>
      </trkpt>
      <trkpt lat="48.68274" lon="2.52325">
        <ele>79</ele>
        <time>2015-12-11T13:10:26Z</time>
      </trkpt>
      <trkpt lat="48.68274" lon="2.52295">
        <ele>79</ele>
        <time>2015-12-11T13:10:43Z</time>
      </trkpt>
      <trkpt lat="48.68294" lon="2.52243">
        <ele>79</ele>
        <time>2015-12-11T13:11:15Z</time>
      </trkpt>
      <trkpt lat="48.68295" lon="2.52228">
        <ele>79</ele>
        <time>2015-12-11T13:11:25Z</time>
      </trkpt>
      <trkpt lat="48.68303" lon="2.52209">
        <ele>79</ele>
        <time>2015-12-11T13:11:37Z</time>
      </trkpt>
      <trkpt lat="48.68314" lon="2.52194">
        <ele>79</ele>
        <time>2015-12-11T13:11:49Z</time>
      </trkpt>
      <trkpt lat="48.6832" lon="2.52157">
        <ele>80</ele>
        <time>2015-12-11T13:12:12Z</time>
      </trkpt>
      <trkpt lat="48.68316" lon="2.52134">
        <ele>80</ele>
        <time>2015-12-11T13:12:25Z</time>
      </trkpt>
      <trkpt lat="48.68317" lon="2.52126">
        <ele>80</ele>
        <time>2015-12-11T13:12:29Z</time>
      </trkpt>
      <trkpt lat="48.68315" lon="2.52111">
        <ele>80</ele>
        <time>2015-12-11T13:12:38Z</time>
      </trkpt>
      <trkpt lat="48.68316" lon="2.52104">
        <ele>80</ele>
        <time>2015-12-11T13:12:42Z</time>
      </trkpt>
      <trkpt lat="48.68327" lon="2.52053">
        <ele>82</ele>
        <time>2015-12-11T13:13:13Z</time>
      </trkpt>
      <trkpt lat="48.68327" lon="2.52044">
        <ele>82</ele>
        <time>2015-12-11T13:13:17Z</time>
      </trkpt>
      <trkpt lat="48.6833" lon="2.52037">
        <ele>83</ele>
        <time>2015-12-11T13:13:22Z</time>
      </trkpt>
      <trkpt lat="48.68334" lon="2.52035">
        <ele>83</ele>
        <time>2015-12-11T13:13:26Z</time>
      </trkpt>
      <trkpt lat="48.68368" lon="2.52046">
        <ele>82</ele>
        <time>2015-12-11T13:13:54Z</time>
      </trkpt>
      <trkpt lat="48.68406" lon="2.52066">
        <ele>83</ele>
        <time>2015-12-11T13:14:27Z</time>
      </trkpt>
      <trkpt lat="48.68439" lon="2.52084">
        <ele>82</ele>
        <time>2015-12-11T13:14:58Z</time>
      </trkpt>
      <trkpt lat="48.68443" lon="2.52088">
        <ele>82</ele>
        <time>2015-12-11T13:15:02Z</time>
      </trkpt>
      <trkpt lat="48.68475" lon="2.52109">
        <ele>79</ele>
        <time>2015-12-11T13:15:32Z</time>
      </trkpt>
      <trkpt lat="48.6851" lon="2.52131">
        <ele>76</ele>
        <time>2015-12-11T13:16:04Z</time>
      </trkpt>
      <trkpt lat="48.68546" lon="2.52155">
        <ele>72</ele>
        <time>2015-12-11T13:16:37Z</time>
      </trkpt>
      <trkpt lat="48.68561" lon="2.5216">
        <ele>71</ele>
        <time>2015-12-11T13:16:49Z</time>
      </trkpt>
      <trkpt lat="48.68566" lon="2.52172">
        <ele>70</ele>
        <time>2015-12-11T13:16:57Z</time>
      </trkpt>
      <trkpt lat="48.68575" lon="2.52173">
        <ele>69</ele>
        <time>2015-12-11T13:17:03Z</time>
      </trkpt>
      <trkpt lat="48.68608" lon="2.52194">
        <ele>64</ele>
        <time>2015-12-11T13:17:36Z</time>
      </trkpt>
      <trkpt lat="48.6864" lon="2.52216">
        <ele>59</ele>
        <time>2015-12-11T13:18:08Z</time>
      </trkpt>
      <trkpt lat="48.68677" lon="2.52235">
        <ele>55</ele>
        <time>2015-12-11T13:18:41Z</time>
      </trkpt>
      <trkpt lat="48.68712" lon="2.52251">
        <ele>50</ele>
        <time>2015-12-11T13:19:12Z</time>
      </trkpt>
      <trkpt lat="48.68721" lon="2.52256">
        <ele>50</ele>
        <time>2015-12-11T13:19:20Z</time>
      </trkpt>
      <trkpt lat="48.68722" lon="2.52263">
        <ele>50</ele>
        <time>2015-12-11T13:19:24Z</time>
      </trkpt>
      <trkpt lat="48.68721" lon="2.52271">
        <ele>50</ele>
        <time>2015-12-11T13:19:28Z</time>
      </trkpt>
      <trkpt lat="48.68725" lon="2.5227">
        <ele>50</ele>
        <time>2015-12-11T13:19:45Z</time>
      </trkpt>
      <trkpt lat="48.68729" lon="2.52265">
        <ele>49</ele>
        <time>2015-12-11T13:19:52Z</time>
      </trkpt>
      <trkpt lat="48.68733" lon="2.52264">
        <ele>48</ele>
        <time>2015-12-11T13:19:56Z</time>
      </trkpt>
      <trkpt lat="48.68738" lon="2.52269">
        <ele>48</ele>
        <time>2015-12-11T13:20:00Z</time>
      </trkpt>
      <trkpt lat="48.68742" lon="2.52273">
        <ele>46</ele>
        <time>2015-12-11T13:20:07Z</time>
      </trkpt>
      <trkpt lat="48.68747" lon="2.52272">
        <ele>45</ele>
        <time>2015-12-11T13:20:11Z</time>
      </trkpt>
      <trkpt lat="48.68751" lon="2.52275">
        <ele>44</ele>
        <time>2015-12-11T13:20:14Z</time>
      </trkpt>
      <trkpt lat="48.68786" lon="2.52309">
        <ele>42</ele>
        <time>2015-12-11T13:20:47Z</time>
      </trkpt>
      <trkpt lat="48.6881" lon="2.52312">
        <ele>40</ele>
        <time>2015-12-11T13:21:07Z</time>
      </trkpt>
      <trkpt lat="48.68815" lon="2.52309">
        <ele>40</ele>
        <time>2015-12-11T13:21:12Z</time>
      </trkpt>
      <trkpt lat="48.68819" lon="2.52303">
        <ele>40</ele>
        <time>2015-12-11T13:21:17Z</time>
      </trkpt>
      <trkpt lat="48.68822" lon="2.523">
        <ele>40</ele>
        <time>2015-12-11T13:21:25Z</time>
      </trkpt>
      <trkpt lat="48.68824" lon="2.52297">
        <ele>39</ele>
        <time>2015-12-11T13:22:21Z</time>
      </trkpt>
      <trkpt lat="48.68827" lon="2.52287">
        <ele>38</ele>
        <time>2015-12-11T13:22:40Z</time>
      </trkpt>
      <trkpt lat="48.68836" lon="2.5226">
        <ele>37</ele>
        <time>2015-12-11T13:22:59Z</time>
      </trkpt>
      <trkpt lat="48.68849" lon="2.52248">
        <ele>38</ele>
        <time>2015-12-11T13:23:15Z</time>
      </trkpt>
      <trkpt lat="48.68877" lon="2.52219">
        <ele>38</ele>
        <time>2015-12-11T13:23:48Z</time>
      </trkpt>
      <trkpt lat="48.68896" lon="2.52178">
        <ele>39</ele>
        <time>2015-12-11T13:24:19Z</time>
      </trkpt>
      <trkpt lat="48.68916" lon="2.52133">
        <ele>40</ele>
        <time>2015-12-11T13:24:53Z</time>
      </trkpt>
      <trkpt lat="48.6892" lon="2.52128">
        <ele>40</ele>
        <time>2015-12-11T13:24:57Z</time>
      </trkpt>
      <trkpt lat="48.68924" lon="2.52125">
        <ele>40</ele>
        <time>2015-12-11T13:25:02Z</time>
      </trkpt>
      <trkpt lat="48.68936" lon="2.521">
        <ele>40</ele>
        <time>2015-12-11T13:25:18Z</time>
      </trkpt>
      <trkpt lat="48.68969" lon="2.52081">
        <ele>40</ele>
        <time>2015-12-11T13:25:51Z</time>
      </trkpt>
      <trkpt lat="48.68988" lon="2.52069">
        <ele>39</ele>
        <time>2015-12-11T13:26:11Z</time>
      </trkpt>
      <trkpt lat="48.69021" lon="2.52088">
        <ele>39</ele>
        <time>2015-12-11T13:26:45Z</time>
      </trkpt>
      <trkpt lat="48.69054" lon="2.52105">
        <ele>39</ele>
        <time>2015-12-11T13:27:21Z</time>
      </trkpt>
      <trkpt lat="48.69064" lon="2.52109">
        <ele>39</ele>
        <time>2015-12-11T13:27:30Z</time>
      </trkpt>
      <trkpt lat="48.69098" lon="2.52135">
        <ele>39</ele>
        <time>2015-12-11T13:28:05Z</time>
      </trkpt>
      <trkpt lat="48.69111" lon="2.52134">
        <ele>39</ele>
        <time>2015-12-11T13:28:19Z</time>
      </trkpt>
      <trkpt lat="48.69112" lon="2.52137">
        <ele>40</ele>
        <time>2015-12-11T13:28:58Z</time>
      </trkpt>
      <trkpt lat="48.69115" lon="2.52139">
        <ele>40</ele>
        <time>2015-12-11T13:29:49Z</time>
      </trkpt>
      <trkpt lat="48.69118" lon="2.5214">
        <ele>41</ele>
        <time>2015-12-11T13:30:53Z</time>
      </trkpt>
      <trkpt lat="48.69122" lon="2.5214">
        <ele>42</ele>
        <time>2015-12-11T13:34:28Z</time>
      </trkpt>
      <trkpt lat="48.69125" lon="2.52134">
        <ele>42</ele>
        <time>2015-12-11T13:35:17Z</time>
      </trkpt>
      <trkpt lat="48.69129" lon="2.52139">
        <ele>42</ele>
        <time>2015-12-11T13:35:24Z</time>
      </trkpt>
      <trkpt lat="48.6913" lon="2.52145">
        <ele>42</ele>
        <time>2015-12-11T13:35:31Z</time>
      </trkpt>
      <trkpt lat="48.69135" lon="2.5215">
        <ele>42</ele>
        <time>2015-12-11T13:35:37Z</time>
      </trkpt>
      <trkpt lat="48.69153" lon="2.52162">
        <ele>44</ele>
        <time>2015-12-11T13:35:56Z</time>
      </trkpt>
      <trkpt lat="48.69174" lon="2.52202">
        <ele>44</ele>
        <time>2015-12-11T13:36:28Z</time>
      </trkpt>
      <trkpt lat="48.69194" lon="2.52235">
        <ele>44</ele>
        <time>2015-12-11T13:37:03Z</time>
      </trkpt>
      <trkpt lat="48.69213" lon="2.5228">
        <ele>45</ele>
        <time>2015-12-11T13:37:33Z</time>
      </trkpt>
      <trkpt lat="48.69215" lon="2.52287">
        <ele>45</ele>
        <time>2015-12-11T13:37:38Z</time>
      </trkpt>
      <trkpt lat="48.69217" lon="2.52294">
        <ele>45</ele>
        <time>2015-12-11T13:37:43Z</time>
      </trkpt>
      <trkpt lat="48.69217" lon="2.52301">
        <ele>45</ele>
        <time>2015-12-11T13:37:47Z</time>
      </trkpt>
      <trkpt lat="48.69207" lon="2.52343">
        <ele>45</ele>
        <time>2015-12-11T13:38:20Z</time>
      </trkpt>
      <trkpt lat="48.69201" lon="2.5237">
        <ele>46</ele>
        <time>2015-12-11T13:38:37Z</time>
      </trkpt>
      <trkpt lat="48.692" lon="2.52378">
        <ele>45</ele>
        <time>2015-12-11T13:38:41Z</time>
      </trkpt>
      <trkpt lat="48.69204" lon="2.52383">
        <ele>45</ele>
        <time>2015-12-11T13:38:45Z</time>
      </trkpt>
      <trkpt lat="48.6922" lon="2.52401">
        <ele>44</ele>
        <time>2015-12-11T13:39:03Z</time>
      </trkpt>
      <trkpt lat="48.6923" lon="2.52406">
        <ele>45</ele>
        <time>2015-12-11T13:39:10Z</time>
      </trkpt>
      <trkpt lat="48.69263" lon="2.52429">
        <ele>46</ele>
        <time>2015-12-11T13:39:43Z</time>
      </trkpt>
      <trkpt lat="48.69268" lon="2.52432">
        <ele>47</ele>
        <time>2015-12-11T13:39:48Z</time>
      </trkpt>
      <trkpt lat="48.69272" lon="2.52437">
        <ele>47</ele>
        <time>2015-12-11T13:39:54Z</time>
      </trkpt>
      <trkpt lat="48.69308" lon="2.52467">
        <ele>47</ele>
        <time>2015-12-11T13:40:26Z</time>
      </trkpt>
      <trkpt lat="48.69313" lon="2.52469">
        <ele>47</ele>
        <time>2015-12-11T13:40:31Z</time>
      </trkpt>
      <trkpt lat="48.69333" lon="2.52502">
        <ele>47</ele>
        <time>2015-12-11T13:41:00Z</time>
      </trkpt>
      <trkpt lat="48.69337" lon="2.52518">
        <ele>48</ele>
        <time>2015-12-11T13:41:08Z</time>
      </trkpt>
      <trkpt lat="48.69343" lon="2.52531">
        <ele>47</ele>
        <time>2015-12-11T13:41:18Z</time>
      </trkpt>
      <trkpt lat="48.6935" lon="2.52584">
        <ele>48</ele>
        <time>2015-12-11T13:41:52Z</time>
      </trkpt>
      <trkpt lat="48.69351" lon="2.52598">
        <ele>48</ele>
        <time>2015-12-11T13:41:59Z</time>
      </trkpt>
      <trkpt lat="48.69362" lon="2.52644">
        <ele>47</ele>
        <time>2015-12-11T13:42:24Z</time>
      </trkpt>
      <trkpt lat="48.69362" lon="2.52659">
        <ele>47</ele>
        <time>2015-12-11T13:42:33Z</time>
      </trkpt>
      <trkpt lat="48.69368" lon="2.5271">
        <ele>47</ele>
        <time>2015-12-11T13:43:06Z</time>
      </trkpt>
      <trkpt lat="48.69367" lon="2.52717">
        <ele>47</ele>
        <time>2015-12-11T13:43:10Z</time>
      </trkpt>
      <trkpt lat="48.69365" lon="2.52769">
        <ele>48</ele>
        <time>2015-12-11T13:43:40Z</time>
      </trkpt>
      <trkpt lat="48.69381" lon="2.52813">
        <ele>47</ele>
        <time>2015-12-11T13:44:10Z</time>
      </trkpt>
      <trkpt lat="48.69408" lon="2.52845">
        <ele>47</ele>
        <time>2015-12-11T13:44:41Z</time>
      </trkpt>
      <trkpt lat="48.69434" lon="2.52881">
        <ele>47</ele>
        <time>2015-12-11T13:45:12Z</time>
      </trkpt>
      <trkpt lat="48.69451" lon="2.52934">
        <ele>48</ele>
        <time>2015-12-11T13:45:46Z</time>
      </trkpt>
      <trkpt lat="48.69454" lon="2.5294">
        <ele>48</ele>
        <time>2015-12-11T13:45:50Z</time>
      </trkpt>
      <trkpt lat="48.69466" lon="2.52989">
        <ele>47</ele>
        <time>2015-12-11T13:46:24Z</time>
      </trkpt>
      <trkpt lat="48.69476" lon="2.53023">
        <ele>41</ele>
        <time>2015-12-11T13:46:48Z</time>
      </trkpt>
      <trkpt lat="48.69491" lon="2.53063">
        <ele>41</ele>
        <time>2015-12-11T13:47:18Z</time>
      </trkpt>
      <trkpt lat="48.69503" lon="2.53104">
        <ele>41</ele>
        <time>2015-12-11T13:47:52Z</time>
      </trkpt>
      <trkpt lat="48.69507" lon="2.53108">
        <ele>41</ele>
        <time>2015-12-11T13:48:00Z</time>
      </trkpt>
      <trkpt lat="48.69521" lon="2.53121">
        <ele>41</ele>
        <time>2015-12-11T13:48:13Z</time>
      </trkpt>
      <trkpt lat="48.69521" lon="2.53128">
        <ele>41</ele>
        <time>2015-12-11T13:48:17Z</time>
      </trkpt>
      <trkpt lat="48.69525" lon="2.53133">
        <ele>40</ele>
        <time>2015-12-11T13:48:22Z</time>
      </trkpt>
      <trkpt lat="48.69534" lon="2.5314">
        <ele>38</ele>
        <time>2015-12-11T13:48:30Z</time>
      </trkpt>
      <trkpt lat="48.69553" lon="2.53152">
        <ele>37</ele>
        <time>2015-12-11T13:48:49Z</time>
      </trkpt>
      <trkpt lat="48.69589" lon="2.53151">
        <ele>37</ele>
        <time>2015-12-11T13:49:23Z</time>
      </trkpt>
      <trkpt lat="48.69624" lon="2.53133">
        <ele>37</ele>
        <time>2015-12-11T13:49:54Z</time>
      </trkpt>
      <trkpt lat="48.69628" lon="2.5313">
        <ele>37</ele>
        <time>2015-12-11T13:49:59Z</time>
      </trkpt>
      <trkpt lat="48.69633" lon="2.53129">
        <ele>37</ele>
        <time>2015-12-11T13:50:05Z</time>
      </trkpt>
      <trkpt lat="48.69635" lon="2.53135">
        <ele>37</ele>
        <time>2015-12-11T13:50:46Z</time>
      </trkpt>
      <trkpt lat="48.69636" lon="2.53131">
        <ele>39</ele>
        <time>2015-12-11T13:52:36Z</time>
      </trkpt>
      <trkpt lat="48.69636" lon="2.53127">
        <ele>39</ele>
        <time>2015-12-11T13:53:25Z</time>
      </trkpt>
      <trkpt lat="48.69638" lon="2.53125">
        <ele>39</ele>
        <time>2015-12-11T13:53:36Z</time>
      </trkpt>
      <trkpt lat="48.6964" lon="2.53113">
        <ele>40</ele>
        <time>2015-12-11T13:56:32Z</time>
      </trkpt>
      <trkpt lat="48.69645" lon="2.53086">
        <ele>39</ele>
        <time>2015-12-11T13:56:52Z</time>
      </trkpt>
      <trkpt lat="48.69655" lon="2.53085">
        <ele>39</ele>
        <time>2015-12-11T13:57:04Z</time>
      </trkpt>
      <trkpt lat="48.69671" lon="2.53102">
        <ele>38</ele>
        <time>2015-12-11T13:57:22Z</time>
      </trkpt>
      <trkpt lat="48.69698" lon="2.53116">
        <ele>38</ele>
        <time>2015-12-11T13:57:48Z</time>
      </trkpt>
      <trkpt lat="48.69705" lon="2.53128">
        <ele>38</ele>
        <time>2015-12-11T13:58:03Z</time>
      </trkpt>
      <trkpt lat="48.69714" lon="2.53127">
        <ele>38</ele>
        <time>2015-12-11T13:58:16Z</time>
      </trkpt>
      <trkpt lat="48.69733" lon="2.53136">
        <ele>38</ele>
        <time>2015-12-11T13:58:47Z</time>
      </trkpt>
      <trkpt lat="48.69739" lon="2.53139">
        <ele>38</ele>
        <time>2015-12-11T13:58:54Z</time>
      </trkpt>
      <trkpt lat="48.69742" lon="2.53141">
        <ele>38</ele>
        <time>2015-12-11T13:59:00Z</time>
      </trkpt>
      <trkpt lat="48.69761" lon="2.53146">
        <ele>38</ele>
        <time>2015-12-11T13:59:22Z</time>
      </trkpt>
      <trkpt lat="48.69765" lon="2.5315">
        <ele>38</ele>
        <time>2015-12-11T13:59:27Z</time>
      </trkpt>
      <trkpt lat="48.69778" lon="2.53161">
        <ele>23</ele>
        <time>2015-12-11T13:59:42Z</time>
      </trkpt>
      <trkpt lat="48.69787" lon="2.53168">
        <ele>25</ele>
        <time>2015-12-11T13:59:50Z</time>
      </trkpt>
      <trkpt lat="48.69805" lon="2.53182">
        <ele>23</ele>
        <time>2015-12-11T14:00:06Z</time>
      </trkpt>
      <trkpt lat="48.69831" lon="2.53187">
        <ele>22</ele>
        <time>2015-12-11T14:00:28Z</time>
      </trkpt>
      <trkpt lat="48.69837" lon="2.53183">
        <ele>22</ele>
        <time>2015-12-11T14:00:59Z</time>
      </trkpt>
      <trkpt lat="48.69872" lon="2.53158">
        <ele>22</ele>
        <time>2015-12-11T14:01:30Z</time>
      </trkpt>
      <trkpt lat="48.69886" lon="2.53149">
        <ele>22</ele>
        <time>2015-12-11T14:01:44Z</time>
      </trkpt>
      <trkpt lat="48.69897" lon="2.53147">
        <ele>22</ele>
        <time>2015-12-11T14:01:55Z</time>
      </trkpt>
      <trkpt lat="48.69924" lon="2.53118">
        <ele>22</ele>
        <time>2015-12-11T14:02:25Z</time>
      </trkpt>
      <trkpt lat="48.69956" lon="2.531">
        <ele>22</ele>
        <time>2015-12-11T14:02:57Z</time>
      </trkpt>
      <trkpt lat="48.69961" lon="2.53096">
        <ele>22</ele>
        <time>2015-12-11T14:03:01Z</time>
      </trkpt>
      <trkpt lat="48.69987" lon="2.53073">
        <ele>19</ele>
        <time>2015-12-11T14:03:28Z</time>
      </trkpt>
      <trkpt lat="48.70015" lon="2.53056">
        <ele>19</ele>
        <time>2015-12-11T14:03:54Z</time>
      </trkpt>
      <trkpt lat="48.70048" lon="2.53033">
        <ele>22</ele>
        <time>2015-12-11T14:04:24Z</time>
      </trkpt>
      <trkpt lat="48.70076" lon="2.53012">
        <ele>22</ele>
        <time>2015-12-11T14:04:54Z</time>
      </trkpt>
      <trkpt lat="48.7008" lon="2.53009">
        <ele>22</ele>
        <time>2015-12-11T14:04:59Z</time>
      </trkpt>
      <trkpt lat="48.70112" lon="2.52989">
        <ele>22</ele>
        <time>2015-12-11T14:05:31Z</time>
      </trkpt>
      <trkpt lat="48.70129" lon="2.52973">
        <ele>22</ele>
        <time>2015-12-11T14:05:46Z</time>
      </trkpt>
      <trkpt lat="48.70143" lon="2.52964">
        <ele>22</ele>
        <time>2015-12-11T14:06:06Z</time>
      </trkpt>
      <trkpt lat="48.70162" lon="2.5294">
        <ele>20</ele>
        <time>2015-12-11T14:06:35Z</time>
      </trkpt>
      <trkpt lat="48.70197" lon="2.52922">
        <ele>20</ele>
        <time>2015-12-11T14:07:09Z</time>
      </trkpt>
      <trkpt lat="48.70226" lon="2.52904">
        <ele>20</ele>
        <time>2015-12-11T14:07:36Z</time>
      </trkpt>
      <trkpt lat="48.70254" lon="2.52887">
        <ele>16</ele>
        <time>2015-12-11T14:08:07Z</time>
      </trkpt>
      <trkpt lat="48.70288" lon="2.5287">
        <ele>15</ele>
        <time>2015-12-11T14:08:39Z</time>
      </trkpt>
      <trkpt lat="48.70326" lon="2.52847">
        <ele>14</ele>
        <time>2015-12-11T14:09:12Z</time>
      </trkpt>
      <trkpt lat="48.70359" lon="2.5283">
        <ele>13</ele>
        <time>2015-12-11T14:09:43Z</time>
      </trkpt>
      <trkpt lat="48.70392" lon="2.52796">
        <ele>14</ele>
        <time>2015-12-11T14:10:16Z</time>
      </trkpt>
      <trkpt lat="48.70418" lon="2.52757">
        <ele>18</ele>
        <time>2015-12-11T14:10:46Z</time>
      </trkpt>
      <trkpt lat="48.70442" lon="2.52716">
        <ele>22</ele>
        <time>2015-12-11T14:11:19Z</time>
      </trkpt>
      <trkpt lat="48.70455" lon="2.52659">
        <ele>27</ele>
        <time>2015-12-11T14:11:54Z</time>
      </trkpt>
      <trkpt lat="48.70463" lon="2.52607">
        <ele>31</ele>
        <time>2015-12-11T14:12:24Z</time>
      </trkpt>
      <trkpt lat="48.70487" lon="2.52553">
        <ele>33</ele>
        <time>2015-12-11T14:12:55Z</time>
      </trkpt>
      <trkpt lat="48.70503" lon="2.52505">
        <ele>32</ele>
        <time>2015-12-11T14:13:26Z</time>
      </trkpt>
      <trkpt lat="48.70504" lon="2.52497">
        <ele>32</ele>
        <time>2015-12-11T14:13:31Z</time>
      </trkpt>
      <trkpt lat="48.70504" lon="2.52443">
        <ele>29</ele>
        <time>2015-12-11T14:14:06Z</time>
      </trkpt>
      <trkpt lat="48.70494" lon="2.52391">
        <ele>28</ele>
        <time>2015-12-11T14:14:38Z</time>
      </trkpt>
      <trkpt lat="48.70491" lon="2.52383">
        <ele>28</ele>
        <time>2015-12-11T14:14:43Z</time>
      </trkpt>
      <trkpt lat="48.70476" lon="2.52342">
        <ele>28</ele>
        <time>2015-12-11T14:15:08Z</time>
      </trkpt>
      <trkpt lat="48.70475" lon="2.52335">
        <ele>28</ele>
        <time>2015-12-11T14:15:13Z</time>
      </trkpt>
      <trkpt lat="48.70476" lon="2.52332">
        <ele>28</ele>
        <time>2015-12-11T14:15:19Z</time>
      </trkpt>
      <trkpt lat="48.70476" lon="2.52327">
        <ele>28</ele>
        <time>2015-12-11T14:15:36Z</time>
      </trkpt>
      <trkpt lat="48.70476" lon="2.52324">
        <ele>27</ele>
        <time>2015-12-11T14:16:47Z</time>
      </trkpt>
      <trkpt lat="48.70476" lon="2.5232">
        <ele>26</ele>
        <time>2015-12-11T14:18:22Z</time>
      </trkpt>
      <trkpt lat="48.70476" lon="2.52312">
        <ele>26</ele>
        <time>2015-12-11T14:18:26Z</time>
      </trkpt>
      <trkpt lat="48.70475" lon="2.52305">
        <ele>25</ele>
        <time>2015-12-11T14:18:29Z</time>
      </trkpt>
      <trkpt lat="48.70472" lon="2.52299">
        <ele>24</ele>
        <time>2015-12-11T14:18:33Z</time>
      </trkpt>
      <trkpt lat="48.7047" lon="2.52293">
        <ele>24</ele>
        <time>2015-12-11T14:18:38Z</time>
      </trkpt>
      <trkpt lat="48.70443" lon="2.52258">
        <ele>26</ele>
        <time>2015-12-11T14:19:08Z</time>
      </trkpt>
      <trkpt lat="48.70439" lon="2.52255">
        <ele>26</ele>
        <time>2015-12-11T14:19:12Z</time>
      </trkpt>
      <trkpt lat="48.70407" lon="2.52237">
        <ele>26</ele>
        <time>2015-12-11T14:19:43Z</time>
      </trkpt>
      <trkpt lat="48.70388" lon="2.52227">
        <ele>27</ele>
        <time>2015-12-11T14:20:06Z</time>
      </trkpt>
      <trkpt lat="48.7036" lon="2.5221">
        <ele>26</ele>
        <time>2015-12-11T14:20:29Z</time>
      </trkpt>
      <trkpt lat="48.70355" lon="2.52207">
        <ele>27</ele>
        <time>2015-12-11T14:20:33Z</time>
      </trkpt>
      <trkpt lat="48.70315" lon="2.52196">
        <ele>33</ele>
        <time>2015-12-11T14:21:06Z</time>
      </trkpt>
      <trkpt lat="48.70284" lon="2.52195">
        <ele>35</ele>
        <time>2015-12-11T14:21:43Z</time>
      </trkpt>
      <trkpt lat="48.70243" lon="2.52188">
        <ele>35</ele>
        <time>2015-12-11T14:22:19Z</time>
      </trkpt>
      <trkpt lat="48.70207" lon="2.52182">
        <ele>35</ele>
        <time>2015-12-11T14:22:50Z</time>
      </trkpt>
      <trkpt lat="48.7017" lon="2.52176">
        <ele>36</ele>
        <time>2015-12-11T14:23:22Z</time>
      </trkpt>
      <trkpt lat="48.70133" lon="2.52188">
        <ele>35</ele>
        <time>2015-12-11T14:23:53Z</time>
      </trkpt>
      <trkpt lat="48.70123" lon="2.52192">
        <ele>35</ele>
        <time>2015-12-11T14:24:02Z</time>
      </trkpt>
      <trkpt lat="48.70101" lon="2.52188">
        <ele>36</ele>
        <time>2015-12-11T14:24:19Z</time>
      </trkpt>
      <trkpt lat="48.70099" lon="2.52186">
        <ele>36</ele>
        <time>2015-12-11T14:24:25Z</time>
      </trkpt>
      <trkpt lat="48.70091" lon="2.52179">
        <ele>37</ele>
        <time>2015-12-11T14:24:36Z</time>
      </trkpt>
      <trkpt lat="48.7009" lon="2.52172">
        <ele>36</ele>
        <time>2015-12-11T14:24:43Z</time>
      </trkpt>
      <trkpt lat="48.70063" lon="2.52136">
        <ele>36</ele>
        <time>2015-12-11T14:25:15Z</time>
      </trkpt>
      <trkpt lat="48.70035" lon="2.52103">
        <ele>36</ele>
        <time>2015-12-11T14:25:49Z</time>
      </trkpt>
      <trkpt lat="48.70014" lon="2.5208">
        <ele>35</ele>
        <time>2015-12-11T14:26:15Z</time>
      </trkpt>
      <trkpt lat="48.69982" lon="2.52042">
        <ele>37</ele>
        <time>2015-12-11T14:26:48Z</time>
      </trkpt>
      <trkpt lat="48.69948" lon="2.52009">
        <ele>37</ele>
        <time>2015-12-11T14:27:21Z</time>
      </trkpt>
      <trkpt lat="48.6994" lon="2.52001">
        <ele>37</ele>
        <time>2015-12-11T14:27:29Z</time>
      </trkpt>
      <trkpt lat="48.69922" lon="2.51946">
        <ele>34</ele>
        <time>2015-12-11T14:28:03Z</time>
      </trkpt>
      <trkpt lat="48.69893" lon="2.51917">
        <ele>33</ele>
        <time>2015-12-11T14:28:34Z</time>
      </trkpt>
      <trkpt lat="48.69889" lon="2.51913">
        <ele>34</ele>
        <time>2015-12-11T14:28:38Z</time>
      </trkpt>
      <trkpt lat="48.6988" lon="2.51903">
        <ele>33</ele>
        <time>2015-12-11T14:28:48Z</time>
      </trkpt>
      <trkpt lat="48.69876" lon="2.51899">
        <ele>34</ele>
        <time>2015-12-11T14:28:53Z</time>
      </trkpt>
      <trkpt lat="48.69842" lon="2.51868">
        <ele>32</ele>
        <time>2015-12-11T14:29:26Z</time>
      </trkpt>
      <trkpt lat="48.69816" lon="2.51848">
        <ele>33</ele>
        <time>2015-12-11T14:29:52Z</time>
      </trkpt>
      <trkpt lat="48.69786" lon="2.51809">
        <ele>32</ele>
        <time>2015-12-11T14:30:24Z</time>
      </trkpt>
      <trkpt lat="48.69772" lon="2.5178">
        <ele>32</ele>
        <time>2015-12-11T14:30:45Z</time>
      </trkpt>
      <trkpt lat="48.69749" lon="2.51741">
        <ele>33</ele>
        <time>2015-12-11T14:31:17Z</time>
      </trkpt>
      <trkpt lat="48.69735" lon="2.51717">
        <ele>35</ele>
        <time>2015-12-11T14:31:38Z</time>
      </trkpt>
      <trkpt lat="48.69729" lon="2.51689">
        <ele>35</ele>
        <time>2015-12-11T14:31:54Z</time>
      </trkpt>
      <trkpt lat="48.6973" lon="2.51682">
        <ele>35</ele>
        <time>2015-12-11T14:31:59Z</time>
      </trkpt>
      <trkpt lat="48.69739" lon="2.51673">
        <ele>35</ele>
        <time>2015-12-11T14:32:09Z</time>
      </trkpt>
      <trkpt lat="48.69739" lon="2.51666">
        <ele>35</ele>
        <time>2015-12-11T14:32:16Z</time>
      </trkpt>
      <trkpt lat="48.69737" lon="2.51659">
        <ele>34</ele>
        <time>2015-12-11T14:32:22Z</time>
      </trkpt>
      <trkpt lat="48.6974" lon="2.51643">
        <ele>33</ele>
        <time>2015-12-11T14:32:33Z</time>
      </trkpt>
      <trkpt lat="48.6974" lon="2.51636">
        <ele>33</ele>
        <time>2015-12-11T14:32:36Z</time>
      </trkpt>
      <trkpt lat="48.69738" lon="2.51629">
        <ele>33</ele>
        <time>2015-12-11T14:32:41Z</time>
      </trkpt>
      <trkpt lat="48.69738" lon="2.51613">
        <ele>33</ele>
        <time>2015-12-11T14:32:50Z</time>
      </trkpt>
      <trkpt lat="48.69733" lon="2.5155">
        <ele>33</ele>
        <time>2015-12-11T14:33:23Z</time>
      </trkpt>
      <trkpt lat="48.69731" lon="2.51494">
        <ele>33</ele>
        <time>2015-12-11T14:33:54Z</time>
      </trkpt>
      <trkpt lat="48.69729" lon="2.51463">
        <ele>33</ele>
        <time>2015-12-11T14:34:10Z</time>
      </trkpt>
      <trkpt lat="48.69729" lon="2.51456">
        <ele>34</ele>
        <time>2015-12-11T14:34:17Z</time>
      </trkpt>
      <trkpt lat="48.69727" lon="2.51448">
        <ele>34</ele>
        <time>2015-12-11T14:34:22Z</time>
      </trkpt>
      <trkpt lat="48.69721" lon="2.51409">
        <ele>33</ele>
        <time>2015-12-11T14:34:42Z</time>
      </trkpt>
      <trkpt lat="48.69716" lon="2.51397">
        <ele>33</ele>
        <time>2015-12-11T14:34:50Z</time>
      </trkpt>
      <trkpt lat="48.69717" lon="2.51389">
        <ele>34</ele>
        <time>2015-12-11T14:34:54Z</time>
      </trkpt>
      <trkpt lat="48.6972" lon="2.51384">
        <ele>34</ele>
        <time>2015-12-11T14:34:59Z</time>
      </trkpt>
      <trkpt lat="48.69723" lon="2.51376">
        <ele>34</ele>
        <time>2015-12-11T14:35:04Z</time>
      </trkpt>
      <trkpt lat="48.69721" lon="2.51369">
        <ele>34</ele>
        <time>2015-12-11T14:35:09Z</time>
      </trkpt>
      <trkpt lat="48.69707" lon="2.5131">
        <ele>35</ele>
        <time>2015-12-11T14:35:42Z</time>
      </trkpt>
      <trkpt lat="48.69698" lon="2.51258">
        <ele>35</ele>
        <time>2015-12-11T14:36:12Z</time>
      </trkpt>
      <trkpt lat="48.69676" lon="2.51207">
        <ele>35</ele>
        <time>2015-12-11T14:36:46Z</time>
      </trkpt>
      <trkpt lat="48.69656" lon="2.51171">
        <ele>35</ele>
        <time>2015-12-11T14:37:17Z</time>
      </trkpt>
      <trkpt lat="48.69653" lon="2.51171">
        <ele>28</ele>
        <time>2015-12-11T14:44:53Z</time>
      </trkpt>
      <trkpt lat="48.69617" lon="2.5115">
        <ele>26</ele>
        <time>2015-12-11T14:45:24Z</time>
      </trkpt>
      <trkpt lat="48.69599" lon="2.51138">
        <ele>26</ele>
        <time>2015-12-11T14:45:41Z</time>
      </trkpt>
      <trkpt lat="48.6959" lon="2.51143">
        <ele>26</ele>
        <time>2015-12-11T14:45:47Z</time>
      </trkpt>
      <trkpt lat="48.69585" lon="2.51144">
        <ele>26</ele>
        <time>2015-12-11T14:45:51Z</time>
      </trkpt>
      <trkpt lat="48.6958" lon="2.51146">
        <ele>27</ele>
        <time>2015-12-11T14:45:55Z</time>
      </trkpt>
      <trkpt lat="48.69555" lon="2.5115">
        <ele>26</ele>
        <time>2015-12-11T14:46:15Z</time>
      </trkpt>
      <trkpt lat="48.6955" lon="2.51147">
        <ele>27</ele>
        <time>2015-12-11T14:46:19Z</time>
      </trkpt>
      <trkpt lat="48.69532" lon="2.51133">
        <ele>30</ele>
        <time>2015-12-11T14:46:36Z</time>
      </trkpt>
      <trkpt lat="48.69531" lon="2.51126">
        <ele>31</ele>
        <time>2015-12-11T14:46:44Z</time>
      </trkpt>
      <trkpt lat="48.69531" lon="2.5111">
        <ele>32</ele>
        <time>2015-12-11T14:46:54Z</time>
      </trkpt>
      <trkpt lat="48.69524" lon="2.5109">
        <ele>31</ele>
        <time>2015-12-11T14:47:08Z</time>
      </trkpt>
      <trkpt lat="48.69525" lon="2.51081">
        <ele>30</ele>
        <time>2015-12-11T14:47:13Z</time>
      </trkpt>
      <trkpt lat="48.69528" lon="2.51069">
        <ele>30</ele>
        <time>2015-12-11T14:47:27Z</time>
      </trkpt>
      <trkpt lat="48.69527" lon="2.51061">
        <ele>29</ele>
        <time>2015-12-11T14:47:32Z</time>
      </trkpt>
      <trkpt lat="48.6953" lon="2.51056">
        <ele>29</ele>
        <time>2015-12-11T14:47:35Z</time>
      </trkpt>
      <trkpt lat="48.6953" lon="2.51049">
        <ele>29</ele>
        <time>2015-12-11T14:47:38Z</time>
      </trkpt>
      <trkpt lat="48.69519" lon="2.51026">
        <ele>29</ele>
        <time>2015-12-11T14:47:51Z</time>
      </trkpt>
      <trkpt lat="48.69517" lon="2.51025">
        <ele>29</ele>
        <time>2015-12-11T14:48:02Z</time>
      </trkpt>
      <trkpt lat="48.69511" lon="2.51026">
        <ele>29</ele>
        <time>2015-12-11T14:48:17Z</time>
      </trkpt>
      <trkpt lat="48.69507" lon="2.5103">
        <ele>28</ele>
        <time>2015-12-11T14:48:21Z</time>
      </trkpt>
      <trkpt lat="48.69502" lon="2.51031">
        <ele>28</ele>
        <time>2015-12-11T14:48:25Z</time>
      </trkpt>
      <trkpt lat="48.69498" lon="2.51036">
        <ele>28</ele>
        <time>2015-12-11T14:48:31Z</time>
      </trkpt>
      <trkpt lat="48.69451" lon="2.51091">
        <ele>29</ele>
        <time>2015-12-11T14:48:58Z</time>
      </trkpt>
      <trkpt lat="48.69449" lon="2.51089">
        <ele>30</ele>
        <time>2015-12-11T14:49:17Z</time>
      </trkpt>
      <trkpt lat="48.69444" lon="2.5109">
        <ele>30</ele>
        <time>2015-12-11T14:49:21Z</time>
      </trkpt>
      <trkpt lat="48.69413" lon="2.51112">
        <ele>35</ele>
        <time>2015-12-11T14:49:51Z</time>
      </trkpt>
      <trkpt lat="48.69408" lon="2.51115">
        <ele>36</ele>
        <time>2015-12-11T14:49:55Z</time>
      </trkpt>
      <trkpt lat="48.69404" lon="2.51118">
        <ele>37</ele>
        <time>2015-12-11T14:49:59Z</time>
      </trkpt>
      <trkpt lat="48.694" lon="2.51115">
        <ele>37</ele>
        <time>2015-12-11T14:50:03Z</time>
      </trkpt>
      <trkpt lat="48.69393" lon="2.51093">
        <ele>39</ele>
        <time>2015-12-11T14:50:17Z</time>
      </trkpt>
      <trkpt lat="48.69392" lon="2.51086">
        <ele>39</ele>
        <time>2015-12-11T14:50:21Z</time>
      </trkpt>
      <trkpt lat="48.69388" lon="2.51082">
        <ele>39</ele>
        <time>2015-12-11T14:51:06Z</time>
      </trkpt>
      <trkpt lat="48.6939" lon="2.51079">
        <ele>39</ele>
        <time>2015-12-11T14:51:18Z</time>
      </trkpt>
      <trkpt lat="48.69389" lon="2.51075">
        <ele>39</ele>
        <time>2015-12-11T14:51:25Z</time>
      </trkpt>
      <trkpt lat="48.69388" lon="2.51066">
        <ele>40</ele>
        <time>2015-12-11T14:51:36Z</time>
      </trkpt>
      <trkpt lat="48.69387" lon="2.51063">
        <ele>40</ele>
        <time>2015-12-11T14:51:38Z</time>
      </trkpt>
      <trkpt lat="48.69387" lon="2.51056">
        <ele>40</ele>
        <time>2015-12-11T14:51:43Z</time>
      </trkpt>
      <trkpt lat="48.69388" lon="2.51047">
        <ele>40</ele>
        <time>2015-12-11T14:51:47Z</time>
      </trkpt>
      <trkpt lat="48.69392" lon="2.5103">
        <ele>39</ele>
        <time>2015-12-11T14:51:53Z</time>
      </trkpt>
      <trkpt lat="48.69391" lon="2.51023">
        <ele>38</ele>
        <time>2015-12-11T14:51:56Z</time>
      </trkpt>
      <trkpt lat="48.69392" lon="2.51015">
        <ele>38</ele>
        <time>2015-12-11T14:52:00Z</time>
      </trkpt>
      <trkpt lat="48.69392" lon="2.50991">
        <ele>37</ele>
        <time>2015-12-11T14:52:12Z</time>
      </trkpt>
      <trkpt lat="48.69389" lon="2.50985">
        <ele>37</ele>
        <time>2015-12-11T14:52:15Z</time>
      </trkpt>
      <trkpt lat="48.69385" lon="2.5098">
        <ele>37</ele>
        <time>2015-12-11T14:52:20Z</time>
      </trkpt>
      <trkpt lat="48.69379" lon="2.5098">
        <ele>37</ele>
        <time>2015-12-11T14:52:24Z</time>
      </trkpt>
      <trkpt lat="48.6934" lon="2.50993">
        <ele>39</ele>
        <time>2015-12-11T14:52:55Z</time>
      </trkpt>
      <trkpt lat="48.69335" lon="2.50993">
        <ele>39</ele>
        <time>2015-12-11T14:53:00Z</time>
      </trkpt>
      <trkpt lat="48.6933" lon="2.50995">
        <ele>40</ele>
        <time>2015-12-11T14:53:06Z</time>
      </trkpt>
      <trkpt lat="48.69328" lon="2.51003">
        <ele>40</ele>
        <time>2015-12-11T14:53:13Z</time>
      </trkpt>
      <trkpt lat="48.6933" lon="2.51017">
        <ele>41</ele>
        <time>2015-12-11T14:53:24Z</time>
      </trkpt>
      <trkpt lat="48.69327" lon="2.51054">
        <ele>41</ele>
        <time>2015-12-11T14:53:44Z</time>
      </trkpt>
      <trkpt lat="48.69324" lon="2.51069">
        <ele>42</ele>
        <time>2015-12-11T14:53:52Z</time>
      </trkpt>
      <trkpt lat="48.69325" lon="2.51078">
        <ele>42</ele>
        <time>2015-12-11T14:53:57Z</time>
      </trkpt>
      <trkpt lat="48.69318" lon="2.51114">
        <ele>44</ele>
        <time>2015-12-11T14:54:20Z</time>
      </trkpt>
      <trkpt lat="48.69308" lon="2.51131">
        <ele>44</ele>
        <time>2015-12-11T14:54:38Z</time>
      </trkpt>
      <trkpt lat="48.69306" lon="2.51138">
        <ele>45</ele>
        <time>2015-12-11T14:54:43Z</time>
      </trkpt>
      <trkpt lat="48.69276" lon="2.51168">
        <ele>48</ele>
        <time>2015-12-11T14:55:14Z</time>
      </trkpt>
      <trkpt lat="48.69264" lon="2.51181">
        <ele>49</ele>
        <time>2015-12-11T14:55:28Z</time>
      </trkpt>
      <trkpt lat="48.69253" lon="2.51181">
        <ele>50</ele>
        <time>2015-12-11T14:55:39Z</time>
      </trkpt>
      <trkpt lat="48.69248" lon="2.51184">
        <ele>50</ele>
        <time>2015-12-11T14:55:44Z</time>
      </trkpt>
      <trkpt lat="48.69217" lon="2.51214">
        <ele>53</ele>
        <time>2015-12-11T14:56:15Z</time>
      </trkpt>
      <trkpt lat="48.69194" lon="2.51233">
        <ele>55</ele>
        <time>2015-12-11T14:56:39Z</time>
      </trkpt>
      <trkpt lat="48.69189" lon="2.51231">
        <ele>56</ele>
        <time>2015-12-11T14:56:43Z</time>
      </trkpt>
      <trkpt lat="48.69156" lon="2.51209">
        <ele>60</ele>
        <time>2015-12-11T14:57:16Z</time>
      </trkpt>
      <trkpt lat="48.69123" lon="2.51179">
        <ele>62</ele>
        <time>2015-12-11T14:57:48Z</time>
      </trkpt>
      <trkpt lat="48.69118" lon="2.51176">
        <ele>62</ele>
        <time>2015-12-11T14:57:52Z</time>
      </trkpt>
      <trkpt lat="48.69106" lon="2.51171">
        <ele>63</ele>
        <time>2015-12-11T14:58:08Z</time>
      </trkpt>
      <trkpt lat="48.69103" lon="2.51164">
        <ele>64</ele>
        <time>2015-12-11T14:59:41Z</time>
      </trkpt>
      <trkpt lat="48.69093" lon="2.51116">
        <ele>65</ele>
        <time>2015-12-11T15:00:11Z</time>
      </trkpt>
      <trkpt lat="48.6908" lon="2.51057">
        <ele>65</ele>
        <time>2015-12-11T15:00:45Z</time>
      </trkpt>
      <trkpt lat="48.69079" lon="2.5105">
        <ele>65</ele>
        <time>2015-12-11T15:00:49Z</time>
      </trkpt>
      <trkpt lat="48.69074" lon="2.51028">
        <ele>64</ele>
        <time>2015-12-11T15:01:00Z</time>
      </trkpt>
      <trkpt lat="48.69068" lon="2.51017">
        <ele>63</ele>
        <time>2015-12-11T15:01:07Z</time>
      </trkpt>
      <trkpt lat="48.69063" lon="2.5098">
        <ele>64</ele>
        <time>2015-12-11T15:01:29Z</time>
      </trkpt>
      <trkpt lat="48.69058" lon="2.50979">
        <ele>64</ele>
        <time>2015-12-11T15:01:32Z</time>
      </trkpt>
      <trkpt lat="48.69023" lon="2.50953">
        <ele>67</ele>
        <time>2015-12-11T15:02:06Z</time>
      </trkpt>
      <trkpt lat="48.6902" lon="2.5095">
        <ele>67</ele>
        <time>2015-12-11T15:02:14Z</time>
      </trkpt>
      <trkpt lat="48.69021" lon="2.50943">
        <ele>67</ele>
        <time>2015-12-11T15:02:21Z</time>
      </trkpt>
      <trkpt lat="48.69029" lon="2.50922">
        <ele>66</ele>
        <time>2015-12-11T15:02:41Z</time>
      </trkpt>
      <trkpt lat="48.69031" lon="2.50916">
        <ele>66</ele>
        <time>2015-12-11T15:02:46Z</time>
      </trkpt>
      <trkpt lat="48.69028" lon="2.50913">
        <ele>66</ele>
        <time>2015-12-11T15:02:55Z</time>
      </trkpt>
      <trkpt lat="48.69026" lon="2.5092">
        <ele>66</ele>
        <time>2015-12-11T15:03:01Z</time>
      </trkpt>
      <trkpt lat="48.69021" lon="2.50934">
        <ele>66</ele>
        <time>2015-12-11T15:03:12Z</time>
      </trkpt>
      <trkpt lat="48.69016" lon="2.50938">
        <ele>66</ele>
        <time>2015-12-11T15:03:17Z</time>
      </trkpt>
      <trkpt lat="48.69007" lon="2.50933">
        <ele>67</ele>
        <time>2015-12-11T15:03:28Z</time>
      </trkpt>
      <trkpt lat="48.68971" lon="2.50905">
        <ele>68</ele>
        <time>2015-12-11T15:04:01Z</time>
      </trkpt>
      <trkpt lat="48.68962" lon="2.50901">
        <ele>68</ele>
        <time>2015-12-11T15:04:10Z</time>
      </trkpt>
      <trkpt lat="48.68951" lon="2.50897">
        <ele>69</ele>
        <time>2015-12-11T15:04:19Z</time>
      </trkpt>
      <trkpt lat="48.68937" lon="2.50888">
        <ele>69</ele>
        <time>2015-12-11T15:04:32Z</time>
      </trkpt>
      <trkpt lat="48.68919" lon="2.50876">
        <ele>69</ele>
        <time>2015-12-11T15:04:48Z</time>
      </trkpt>
      <trkpt lat="48.68908" lon="2.5086">
        <ele>70</ele>
        <time>2015-12-11T15:05:02Z</time>
      </trkpt>
      <trkpt lat="48.68908" lon="2.50855">
        <ele>70</ele>
        <time>2015-12-11T15:05:31Z</time>
      </trkpt>
      <trkpt lat="48.68909" lon="2.50857">
        <ele>70</ele>
        <time>2015-12-11T15:06:29Z</time>
      </trkpt>
      <trkpt lat="48.68908" lon="2.50862">
        <ele>70</ele>
        <time>2015-12-11T15:06:40Z</time>
      </trkpt>
      <trkpt lat="48.68905" lon="2.50868">
        <ele>70</ele>
        <time>2015-12-11T15:06:45Z</time>
      </trkpt>
      <trkpt lat="48.68897" lon="2.50866">
        <ele>70</ele>
        <time>2015-12-11T15:06:51Z</time>
      </trkpt>
      <trkpt lat="48.68869" lon="2.50848">
        <ele>72</ele>
        <time>2015-12-11T15:07:26Z</time>
      </trkpt>
      <trkpt lat="48.68839" lon="2.50818">
        <ele>73</ele>
        <time>2015-12-11T15:07:57Z</time>
      </trkpt>
      <trkpt lat="48.68834" lon="2.50812">
        <ele>74</ele>
        <time>2015-12-11T15:08:02Z</time>
      </trkpt>
      <trkpt lat="48.68819" lon="2.50805">
        <ele>74</ele>
        <time>2015-12-11T15:08:15Z</time>
      </trkpt>
      <trkpt lat="48.68815" lon="2.50801">
        <ele>74</ele>
        <time>2015-12-11T15:08:19Z</time>
      </trkpt>
      <trkpt lat="48.68803" lon="2.50788">
        <ele>74</ele>
        <time>2015-12-11T15:08:31Z</time>
      </trkpt>
      <trkpt lat="48.68799" lon="2.50783">
        <ele>74</ele>
        <time>2015-12-11T15:08:36Z</time>
      </trkpt>
      <trkpt lat="48.68794" lon="2.5078">
        <ele>74</ele>
        <time>2015-12-11T15:08:41Z</time>
      </trkpt>
      <trkpt lat="48.68789" lon="2.50784">
        <ele>75</ele>
        <time>2015-12-11T15:08:46Z</time>
      </trkpt>
      <trkpt lat="48.68774" lon="2.5079">
        <ele>75</ele>
        <time>2015-12-11T15:08:59Z</time>
      </trkpt>
      <trkpt lat="48.68759" lon="2.50786">
        <ele>75</ele>
        <time>2015-12-11T15:09:12Z</time>
      </trkpt>
      <trkpt lat="48.6875" lon="2.50794">
        <ele>75</ele>
        <time>2015-12-11T15:09:21Z</time>
      </trkpt>
      <trkpt lat="48.68735" lon="2.50798">
        <ele>75</ele>
        <time>2015-12-11T15:09:35Z</time>
      </trkpt>
      <trkpt lat="48.6873" lon="2.50795">
        <ele>75</ele>
        <time>2015-12-11T15:09:39Z</time>
      </trkpt>
      <trkpt lat="48.68728" lon="2.50796">
        <ele>75</ele>
        <time>2015-12-11T15:10:21Z</time>
      </trkpt>
      <trkpt lat="48.68724" lon="2.50797">
        <ele>75</ele>
        <time>2015-12-11T15:10:30Z</time>
      </trkpt>
      <trkpt lat="48.68721" lon="2.50788">
        <ele>75</ele>
        <time>2015-12-11T15:10:44Z</time>
      </trkpt>
      <trkpt lat="48.68719" lon="2.50785">
        <ele>75</ele>
        <time>2015-12-11T15:10:50Z</time>
      </trkpt>
      <trkpt lat="48.68708" lon="2.50786">
        <ele>75</ele>
        <time>2015-12-11T15:11:02Z</time>
      </trkpt>
      <trkpt lat="48.68682" lon="2.50803">
        <ele>75</ele>
        <time>2015-12-11T15:11:21Z</time>
      </trkpt>
      <trkpt lat="48.68672" lon="2.50806">
        <ele>76</ele>
        <time>2015-12-11T15:11:33Z</time>
      </trkpt>
      <trkpt lat="48.68631" lon="2.50817">
        <ele>76</ele>
        <time>2015-12-11T15:12:05Z</time>
      </trkpt>
      <trkpt lat="48.68622" lon="2.50823">
        <ele>76</ele>
        <time>2015-12-11T15:12:12Z</time>
      </trkpt>
      <trkpt lat="48.68597" lon="2.50824">
        <ele>77</ele>
        <time>2015-12-11T15:12:34Z</time>
      </trkpt>
      <trkpt lat="48.68586" lon="2.50825">
        <ele>76</ele>
        <time>2015-12-11T15:12:44Z</time>
      </trkpt>
      <trkpt lat="48.68551" lon="2.50833">
        <ele>76</ele>
        <time>2015-12-11T15:13:15Z</time>
      </trkpt>
      <trkpt lat="48.68546" lon="2.50834">
        <ele>76</ele>
        <time>2015-12-11T15:13:20Z</time>
      </trkpt>
      <trkpt lat="48.68541" lon="2.50834">
        <ele>76</ele>
        <time>2015-12-11T15:13:25Z</time>
      </trkpt>
      <trkpt lat="48.68535" lon="2.50836">
        <ele>76</ele>
        <time>2015-12-11T15:13:31Z</time>
      </trkpt>
      <trkpt lat="48.68511" lon="2.5084">
        <ele>77</ele>
        <time>2015-12-11T15:13:52Z</time>
      </trkpt>
      <trkpt lat="48.68506" lon="2.50841">
        <ele>77</ele>
        <time>2015-12-11T15:13:57Z</time>
      </trkpt>
      <trkpt lat="48.68501" lon="2.50839">
        <ele>77</ele>
        <time>2015-12-11T15:14:02Z</time>
      </trkpt>
      <trkpt lat="48.68496" lon="2.50839">
        <ele>77</ele>
        <time>2015-12-11T15:14:07Z</time>
      </trkpt>
      <trkpt lat="48.68491" lon="2.5084">
        <ele>77</ele>
        <time>2015-12-11T15:14:11Z</time>
      </trkpt>
      <trkpt lat="48.68463" lon="2.50854">
        <ele>77</ele>
        <time>2015-12-11T15:14:46Z</time>
      </trkpt>
      <trkpt lat="48.68451" lon="2.50867">
        <ele>77</ele>
        <time>2015-12-11T15:15:03Z</time>
      </trkpt>
      <trkpt lat="48.68448" lon="2.50873">
        <ele>77</ele>
        <time>2015-12-11T15:15:08Z</time>
      </trkpt>
      <trkpt lat="48.68446" lon="2.50875">
        <ele>78</ele>
        <time>2015-12-11T15:16:11Z</time>
      </trkpt>
      <trkpt lat="48.68435" lon="2.50895">
        <ele>77</ele>
        <time>2015-12-11T15:16:37Z</time>
      </trkpt>
      <trkpt lat="48.68423" lon="2.50907">
        <ele>77</ele>
        <time>2015-12-11T15:16:50Z</time>
      </trkpt>
      <trkpt lat="48.68412" lon="2.50929">
        <ele>77</ele>
        <time>2015-12-11T15:17:03Z</time>
      </trkpt>
      <trkpt lat="48.68407" lon="2.50929">
        <ele>76</ele>
        <time>2015-12-11T15:17:07Z</time>
      </trkpt>
      <trkpt lat="48.68368" lon="2.50921">
        <ele>75</ele>
        <time>2015-12-11T15:17:39Z</time>
      </trkpt>
      <trkpt lat="48.68363" lon="2.5092">
        <ele>75</ele>
        <time>2015-12-11T15:17:45Z</time>
      </trkpt>
      <trkpt lat="48.68358" lon="2.50919">
        <ele>75</ele>
        <time>2015-12-11T15:17:49Z</time>
      </trkpt>
      <trkpt lat="48.68329" lon="2.50903">
        <ele>74</ele>
        <time>2015-12-11T15:18:19Z</time>
      </trkpt>
      <trkpt lat="48.68323" lon="2.50882">
        <ele>73</ele>
        <time>2015-12-11T15:18:36Z</time>
      </trkpt>
      <trkpt lat="48.68318" lon="2.50829">
        <ele>74</ele>
        <time>2015-12-11T15:19:05Z</time>
      </trkpt>
      <trkpt lat="48.68316" lon="2.50806">
        <ele>75</ele>
        <time>2015-12-11T15:19:22Z</time>
      </trkpt>
      <trkpt lat="48.68314" lon="2.50792">
        <ele>75</ele>
        <time>2015-12-11T15:19:31Z</time>
      </trkpt>
      <trkpt lat="48.68313" lon="2.50784">
        <ele>75</ele>
        <time>2015-12-11T15:19:36Z</time>
      </trkpt>
      <trkpt lat="48.68306" lon="2.50725">
        <ele>76</ele>
        <time>2015-12-11T15:20:08Z</time>
      </trkpt>
      <trkpt lat="48.68305" lon="2.50718">
        <ele>76</ele>
        <time>2015-12-11T15:20:13Z</time>
      </trkpt>
      <trkpt lat="48.68287" lon="2.50681">
        <ele>77</ele>
        <time>2015-12-11T15:20:37Z</time>
      </trkpt>
      <trkpt lat="48.68282" lon="2.50678">
        <ele>77</ele>
        <time>2015-12-11T15:20:42Z</time>
      </trkpt>
      <trkpt lat="48.68277" lon="2.50677">
        <ele>77</ele>
        <time>2015-12-11T15:20:46Z</time>
      </trkpt>
      <trkpt lat="48.68272" lon="2.5068">
        <ele>77</ele>
        <time>2015-12-11T15:20:51Z</time>
      </trkpt>
      <trkpt lat="48.68268" lon="2.50686">
        <ele>77</ele>
        <time>2015-12-11T15:20:55Z</time>
      </trkpt>
      <trkpt lat="48.68241" lon="2.50723">
        <ele>77</ele>
        <time>2015-12-11T15:21:26Z</time>
      </trkpt>
      <trkpt lat="48.68216" lon="2.50761">
        <ele>78</ele>
        <time>2015-12-11T15:21:56Z</time>
      </trkpt>
      <trkpt lat="48.68185" lon="2.50799">
        <ele>78</ele>
        <time>2015-12-11T15:22:29Z</time>
      </trkpt>
      <trkpt lat="48.6816" lon="2.50833">
        <ele>78</ele>
        <time>2015-12-11T15:23:01Z</time>
      </trkpt>
      <trkpt lat="48.68133" lon="2.50866">
        <ele>79</ele>
        <time>2015-12-11T15:23:33Z</time>
      </trkpt>
      <trkpt lat="48.68106" lon="2.50901">
        <ele>80</ele>
        <time>2015-12-11T15:24:05Z</time>
      </trkpt>
      <trkpt lat="48.68079" lon="2.50937">
        <ele>81</ele>
        <time>2015-12-11T15:24:35Z</time>
      </trkpt>
      <trkpt lat="48.68048" lon="2.50978">
        <ele>82</ele>
        <time>2015-12-11T15:25:10Z</time>
      </trkpt>
      <trkpt lat="48.68019" lon="2.51021">
        <ele>83</ele>
        <time>2015-12-11T15:25:44Z</time>
      </trkpt>
      <trkpt lat="48.67992" lon="2.51056">
        <ele>84</ele>
        <time>2015-12-11T15:26:16Z</time>
      </trkpt>
      <trkpt lat="48.67962" lon="2.51098">
        <ele>84</ele>
        <time>2015-12-11T15:26:49Z</time>
      </trkpt>
      <trkpt lat="48.67959" lon="2.51103">
        <ele>84</ele>
        <time>2015-12-11T15:26:53Z</time>
      </trkpt>
      <trkpt lat="48.67951" lon="2.51114">
        <ele>84</ele>
        <time>2015-12-11T15:27:02Z</time>
      </trkpt>
      <trkpt lat="48.67933" lon="2.51128">
        <ele>84</ele>
        <time>2015-12-11T15:27:20Z</time>
      </trkpt>
      <trkpt lat="48.67919" lon="2.51132">
        <ele>83</ele>
        <time>2015-12-11T15:27:32Z</time>
      </trkpt>
      <trkpt lat="48.67909" lon="2.51151">
        <ele>83</ele>
        <time>2015-12-11T15:27:45Z</time>
      </trkpt>
      <trkpt lat="48.6789" lon="2.51195">
        <ele>82</ele>
        <time>2015-12-11T15:28:18Z</time>
      </trkpt>
      <trkpt lat="48.6787" lon="2.51228">
        <ele>82</ele>
        <time>2015-12-11T15:28:44Z</time>
      </trkpt>
      <trkpt lat="48.67871" lon="2.51232">
        <ele>82</ele>
        <time>2015-12-11T15:29:39Z</time>
      </trkpt>
      <trkpt lat="48.67874" lon="2.51236">
        <ele>82</ele>
        <time>2015-12-11T15:29:58Z</time>
      </trkpt>
      <trkpt lat="48.67875" lon="2.51243">
        <ele>81</ele>
        <time>2015-12-11T15:30:41Z</time>
      </trkpt>
      <trkpt lat="48.67875" lon="2.51251">
        <ele>82</ele>
        <time>2015-12-11T15:30:47Z</time>
      </trkpt>
      <trkpt lat="48.67877" lon="2.51257">
        <ele>82</ele>
        <time>2015-12-11T15:30:52Z</time>
      </trkpt>
      <trkpt lat="48.67881" lon="2.51271">
        <ele>81</ele>
        <time>2015-12-11T15:31:02Z</time>
      </trkpt>
      <trkpt lat="48.67887" lon="2.51292">
        <ele>81</ele>
        <time>2015-12-11T15:31:15Z</time>
      </trkpt>
      <trkpt lat="48.67888" lon="2.51298">
        <ele>81</ele>
        <time>2015-12-11T15:31:20Z</time>
      </trkpt>
      <trkpt lat="48.67891" lon="2.51303">
        <ele>81</ele>
        <time>2015-12-11T15:31:24Z</time>
      </trkpt>
      <trkpt lat="48.67892" lon="2.51311">
        <ele>82</ele>
        <time>2015-12-11T15:31:28Z</time>
      </trkpt>
      <trkpt lat="48.67905" lon="2.51333">
        <ele>82</ele>
        <time>2015-12-11T15:31:43Z</time>
      </trkpt>
      <trkpt lat="48.67908" lon="2.51349">
        <ele>82</ele>
        <time>2015-12-11T15:31:53Z</time>
      </trkpt>
      <trkpt lat="48.6791" lon="2.51355">
        <ele>82</ele>
        <time>2015-12-11T15:31:57Z</time>
      </trkpt>
      <trkpt lat="48.67924" lon="2.51415">
        <ele>82</ele>
        <time>2015-12-11T15:32:31Z</time>
      </trkpt>
      <trkpt lat="48.67942" lon="2.51464">
        <ele>81</ele>
        <time>2015-12-11T15:33:03Z</time>
      </trkpt>
      <trkpt lat="48.67961" lon="2.51515">
        <ele>80</ele>
        <time>2015-12-11T15:33:34Z</time>
      </trkpt>
      <trkpt lat="48.67965" lon="2.51529">
        <ele>80</ele>
        <time>2015-12-11T15:33:42Z</time>
      </trkpt>
      <trkpt lat="48.67975" lon="2.51556">
        <ele>82</ele>
        <time>2015-12-11T15:33:59Z</time>
      </trkpt>
      <trkpt lat="48.67992" lon="2.51611">
        <ele>82</ele>
        <time>2015-12-11T15:34:32Z</time>
      </trkpt>
      <trkpt lat="48.6801" lon="2.51664">
        <ele>82</ele>
        <time>2015-12-11T15:35:05Z</time>
      </trkpt>
      <trkpt lat="48.68029" lon="2.51716">
        <ele>81</ele>
        <time>2015-12-11T15:35:38Z</time>
      </trkpt>
      <trkpt lat="48.68045" lon="2.51765">
        <ele>81</ele>
        <time>2015-12-11T15:36:08Z</time>
      </trkpt>
      <trkpt lat="48.68057" lon="2.51823">
        <ele>80</ele>
        <time>2015-12-11T15:36:41Z</time>
      </trkpt>
      <trkpt lat="48.68061" lon="2.51837">
        <ele>80</ele>
        <time>2015-12-11T15:36:50Z</time>
      </trkpt>
      <trkpt lat="48.68063" lon="2.51852">
        <ele>80</ele>
        <time>2015-12-11T15:36:59Z</time>
      </trkpt>
      <trkpt lat="48.68078" lon="2.51885">
        <ele>79</ele>
        <time>2015-12-11T15:37:23Z</time>
      </trkpt>
      <trkpt lat="48.68098" lon="2.51898">
        <ele>79</ele>
        <time>2015-12-11T15:37:39Z</time>
      </trkpt>
      <trkpt lat="48.68114" lon="2.51898">
        <ele>79</ele>
        <time>2015-12-11T15:37:51Z</time>
      </trkpt>
      <trkpt lat="48.68149" lon="2.51924">
        <ele>79</ele>
        <time>2015-12-11T15:38:23Z</time>
      </trkpt>
      <trkpt lat="48.68185" lon="2.51958">
        <ele>77</ele>
        <time>2015-12-11T15:39:00Z</time>
      </trkpt>
      <trkpt lat="48.68189" lon="2.51954">
        <ele>78</ele>
        <time>2015-12-11T15:39:05Z</time>
      </trkpt>
      <trkpt lat="48.68192" lon="2.51948">
        <ele>78</ele>
        <time>2015-12-11T15:39:11Z</time>
      </trkpt>
      <trkpt lat="48.68194" lon="2.51949">
        <ele>77</ele>
        <time>2015-12-11T15:39:29Z</time>
      </trkpt>
      <trkpt lat="48.68206" lon="2.51955">
        <ele>77</ele>
        <time>2015-12-11T15:39:47Z</time>
      </trkpt>
      <trkpt lat="48.68208" lon="2.51961">
        <ele>77</ele>
        <time>2015-12-11T15:39:55Z</time>
      </trkpt>
      <trkpt lat="48.68214" lon="2.51963">
        <ele>77</ele>
        <time>2015-12-11T15:40:03Z</time>
      </trkpt>
      <trkpt lat="48.68253" lon="2.5198">
        <ele>77</ele>
        <time>2015-12-11T15:40:36Z</time>
      </trkpt>
      <trkpt lat="48.68287" lon="2.51999">
        <ele>77</ele>
        <time>2015-12-11T15:41:08Z</time>
      </trkpt>
      <trkpt lat="48.68325" lon="2.52023">
        <ele>76</ele>
        <time>2015-12-11T15:41:39Z</time>
      </trkpt>
      <trkpt lat="48.68338" lon="2.52033">
        <ele>76</ele>
        <time>2015-12-11T15:41:51Z</time>
      </trkpt>
      <trkpt lat="48.68338" lon="2.5204">
        <ele>76</ele>
        <time>2015-12-11T15:41:55Z</time>
      </trkpt>
      <trkpt lat="48.68328" lon="2.52091">
        <ele>75</ele>
        <time>2015-12-11T15:42:26Z</time>
      </trkpt>
      <trkpt lat="48.68324" lon="2.52097">
        <ele>75</ele>
        <time>2015-12-11T15:42:34Z</time>
      </trkpt>
      <trkpt lat="48.68323" lon="2.52103">
        <ele>76</ele>
        <time>2015-12-11T15:42:43Z</time>
      </trkpt>
      <trkpt lat="48.68323" lon="2.5214">
        <ele>75</ele>
        <time>2015-12-11T15:43:17Z</time>
      </trkpt>
      <trkpt lat="48.68322" lon="2.52147">
        <ele>75</ele>
        <time>2015-12-11T15:43:21Z</time>
      </trkpt>
      <trkpt lat="48.68321" lon="2.52155">
        <ele>75</ele>
        <time>2015-12-11T15:43:26Z</time>
      </trkpt>
      <trkpt lat="48.6832" lon="2.52163">
        <ele>76</ele>
        <time>2015-12-11T15:43:31Z</time>
      </trkpt>
      <trkpt lat="48.68313" lon="2.52193">
        <ele>77</ele>
        <time>2015-12-11T15:43:52Z</time>
      </trkpt>
      <trkpt lat="48.68306" lon="2.52245">
        <ele>77</ele>
        <time>2015-12-11T15:44:26Z</time>
      </trkpt>
      <trkpt lat="48.68305" lon="2.52261">
        <ele>76</ele>
        <time>2015-12-11T15:44:34Z</time>
      </trkpt>
      <trkpt lat="48.68296" lon="2.52271">
        <ele>76</ele>
        <time>2015-12-11T15:44:43Z</time>
      </trkpt>
      <trkpt lat="48.68291" lon="2.52273">
        <ele>76</ele>
        <time>2015-12-11T15:44:47Z</time>
      </trkpt>
      <trkpt lat="48.68289" lon="2.52278">
        <ele>76</ele>
        <time>2015-12-11T15:44:52Z</time>
      </trkpt>
      <trkpt lat="48.68288" lon="2.52287">
        <ele>76</ele>
        <time>2015-12-11T15:44:57Z</time>
      </trkpt>
      <trkpt lat="48.6829" lon="2.52293">
        <ele>76</ele>
        <time>2015-12-11T15:45:01Z</time>
      </trkpt>
      <trkpt lat="48.68291" lon="2.52347">
        <ele>76</ele>
        <time>2015-12-11T15:45:33Z</time>
      </trkpt>
      <trkpt lat="48.68294" lon="2.52378">
        <ele>78</ele>
        <time>2015-12-11T15:45:51Z</time>
      </trkpt>
      <trkpt lat="48.68289" lon="2.52392">
        <ele>79</ele>
        <time>2015-12-11T15:46:01Z</time>
      </trkpt>
      <trkpt lat="48.68281" lon="2.5241">
        <ele>80</ele>
        <time>2015-12-11T15:46:15Z</time>
      </trkpt>
      <trkpt lat="48.68271" lon="2.52414">
        <ele>80</ele>
        <time>2015-12-11T15:46:26Z</time>
      </trkpt>
      <trkpt lat="48.68239" lon="2.52415">
        <ele>80</ele>
        <time>2015-12-11T15:46:51Z</time>
      </trkpt>
      <trkpt lat="48.6822" lon="2.52435">
        <ele>80</ele>
        <time>2015-12-11T15:47:12Z</time>
      </trkpt>
      <trkpt lat="48.68209" lon="2.52452">
        <ele>80</ele>
        <time>2015-12-11T15:47:29Z</time>
      </trkpt>
      <trkpt lat="48.68207" lon="2.52458">
        <ele>80</ele>
        <time>2015-12-11T15:47:35Z</time>
      </trkpt>
      <trkpt lat="48.68208" lon="2.52465">
        <ele>81</ele>
        <time>2015-12-11T15:47:39Z</time>
      </trkpt>
      <trkpt lat="48.68208" lon="2.52519">
        <ele>80</ele>
        <time>2015-12-11T15:48:11Z</time>
      </trkpt>
      <trkpt lat="48.68212" lon="2.52566">
        <ele>79</ele>
        <time>2015-12-11T15:48:38Z</time>
      </trkpt>
      <trkpt lat="48.68208" lon="2.52571">
        <ele>79</ele>
        <time>2015-12-11T15:48:43Z</time>
      </trkpt>
      <trkpt lat="48.68181" lon="2.52588">
        <ele>78</ele>
        <time>2015-12-11T15:49:13Z</time>
      </trkpt>
      <trkpt lat="48.68177" lon="2.52592">
        <ele>78</ele>
        <time>2015-12-11T15:49:19Z</time>
      </trkpt>
      <trkpt lat="48.68164" lon="2.52601">
        <ele>78</ele>
        <time>2015-12-11T15:49:30Z</time>
      </trkpt>
      <trkpt lat="48.6816" lon="2.52599">
        <ele>77</ele>
        <time>2015-12-11T15:49:35Z</time>
      </trkpt>
      <trkpt lat="48.68155" lon="2.52603">
        <ele>77</ele>
        <time>2015-12-11T15:49:39Z</time>
      </trkpt>
      <trkpt lat="48.68146" lon="2.52615">
        <ele>77</ele>
        <time>2015-12-11T15:49:46Z</time>
      </trkpt>
      <trkpt lat="48.68143" lon="2.52621">
        <ele>76</ele>
        <time>2015-12-11T15:49:54Z</time>
      </trkpt>
      <trkpt lat="48.68142" lon="2.52629">
        <ele>76</ele>
        <time>2015-12-11T15:49:59Z</time>
      </trkpt>
      <trkpt lat="48.68139" lon="2.52634">
        <ele>75</ele>
        <time>2015-12-11T15:50:02Z</time>
      </trkpt>
      <trkpt lat="48.68129" lon="2.5264">
        <ele>75</ele>
        <time>2015-12-11T15:50:12Z</time>
      </trkpt>
      <trkpt lat="48.68097" lon="2.52679">
        <ele>75</ele>
        <time>2015-12-11T15:50:44Z</time>
      </trkpt>
      <trkpt lat="48.68093" lon="2.52683">
        <ele>75</ele>
        <time>2015-12-11T15:50:48Z</time>
      </trkpt>
      <trkpt lat="48.6809" lon="2.52689">
        <ele>76</ele>
        <time>2015-12-11T15:50:53Z</time>
      </trkpt>
      <trkpt lat="48.68087" lon="2.52696">
        <ele>76</ele>
        <time>2015-12-11T15:50:58Z</time>
      </trkpt>
      <trkpt lat="48.68076" lon="2.52712">
        <ele>76</ele>
        <time>2015-12-11T15:51:11Z</time>
      </trkpt>
      <trkpt lat="48.68057" lon="2.52747">
        <ele>75</ele>
        <time>2015-12-11T15:51:40Z</time>
      </trkpt>
      <trkpt lat="48.68032" lon="2.52785">
        <ele>76</ele>
        <time>2015-12-11T15:52:12Z</time>
      </trkpt>
      <trkpt lat="48.68008" lon="2.52822">
        <ele>78</ele>
        <time>2015-12-11T15:52:43Z</time>
      </trkpt>
      <trkpt lat="48.67998" lon="2.52839">
        <ele>78</ele>
        <time>2015-12-11T15:52:55Z</time>
      </trkpt>
      <trkpt lat="48.67995" lon="2.52842">
        <ele>78</ele>
        <time>2015-12-11T15:53:14Z</time>
      </trkpt>
      <trkpt lat="48.67995" lon="2.5285">
        <ele>77</ele>
        <time>2015-12-11T15:53:21Z</time>
      </trkpt>
      <trkpt lat="48.67999" lon="2.52854">
        <ele>77</ele>
        <time>2015-12-11T15:53:26Z</time>
      </trkpt>
      <trkpt lat="48.68003" lon="2.52857">
        <ele>76</ele>
        <time>2015-12-11T15:53:30Z</time>
      </trkpt>
      <trkpt lat="48.68016" lon="2.5287">
        <ele>75</ele>
        <time>2015-12-11T15:53:43Z</time>
      </trkpt>
      <trkpt lat="48.68016" lon="2.52877">
        <ele>75</ele>
        <time>2015-12-11T15:53:48Z</time>
      </trkpt>
      <trkpt lat="48.67999" lon="2.52921">
        <ele>75</ele>
        <time>2015-12-11T15:54:22Z</time>
      </trkpt>
      <trkpt lat="48.67996" lon="2.52927">
        <ele>75</ele>
        <time>2015-12-11T15:54:27Z</time>
      </trkpt>
      <trkpt lat="48.67991" lon="2.52926">
        <ele>75</ele>
        <time>2015-12-11T15:54:31Z</time>
      </trkpt>
      <trkpt lat="48.67956" lon="2.52895">
        <ele>76</ele>
        <time>2015-12-11T15:55:06Z</time>
      </trkpt>
      <trkpt lat="48.67927" lon="2.52864">
        <ele>75</ele>
        <time>2015-12-11T15:55:38Z</time>
      </trkpt>
    </trkseg>
  </trk>
</gpx>